createdAt,value
2023-03-06T00:00:29.807Z,2.50
2023-03-06T00:02:56.840Z,2.50
2023-03-06T00:05:23.960Z,2.50
2023-03-06T00:07:50.876Z,2.50
2023-03-06T00:10:27.474Z,2.50
2023-03-06T00:12:55.277Z,2.50
2023-03-06T00:15:22.412Z,2.50
2023-03-06T00:17:49.335Z,2.50
2023-03-06T00:20:16.591Z,2.60
2023-03-06T00:22:43.562Z,2.50
2023-03-06T00:25:12.637Z,2.60
2023-03-06T00:27:39.581Z,2.50
2023-03-06T00:30:07.158Z,2.50
2023-03-06T00:32:34.577Z,2.50
2023-03-06T00:35:02.281Z,2.50
2023-03-06T00:37:29.438Z,2.50
2023-03-06T00:39:56.380Z,2.50
2023-03-06T00:42:23.327Z,2.40
2023-03-06T00:44:52.008Z,2.40
2023-03-06T00:47:18.966Z,2.40
2023-03-06T00:49:45.938Z,2.40
2023-03-06T00:52:13.044Z,2.40
2023-03-06T00:54:40.699Z,2.40
2023-03-06T00:57:07.696Z,2.30
2023-03-06T00:59:34.997Z,2.30
2023-03-06T01:02:02.187Z,2.30
2023-03-06T01:04:29.182Z,2.30
2023-03-06T01:06:56.212Z,2.30
2023-03-06T01:09:24.558Z,2.20
2023-03-06T01:11:53.960Z,2.20
2023-03-06T01:14:20.864Z,2.20
2023-03-06T01:16:48.111Z,2.20
2023-03-06T01:19:17.405Z,2.20
2023-03-06T01:21:45.304Z,2.30
2023-03-06T01:24:12.270Z,2.30
2023-03-06T01:26:39.184Z,2.20
2023-03-06T01:29:06.531Z,2.20
2023-03-06T01:31:33.550Z,2.20
2023-03-06T01:34:00.716Z,2.20
2023-03-06T01:36:27.705Z,2.30
2023-03-06T01:38:54.546Z,2.20
2023-03-06T01:41:21.665Z,2.20
2023-03-06T01:43:48.749Z,2.20
2023-03-06T01:46:35.228Z,2.20
2023-03-06T01:49:11.484Z,2.20
2023-03-06T01:51:43.957Z,2.20
2023-03-06T01:54:12.651Z,2.30
2023-03-06T01:56:40.208Z,2.20
2023-03-06T01:59:07.320Z,2.30
2023-03-06T02:01:34.298Z,2.30
2023-03-06T02:04:01.147Z,2.30
2023-03-06T02:06:29.610Z,2.30
2023-03-06T02:08:56.574Z,2.30
2023-03-06T02:11:24.066Z,2.30
2023-03-06T02:13:51.338Z,2.30
2023-03-06T02:16:18.456Z,2.30
2023-03-06T02:18:45.537Z,2.30
2023-03-06T02:21:13.786Z,2.30
2023-03-06T02:23:50.844Z,2.30
2023-03-06T02:26:17.845Z,2.30
2023-03-06T02:28:44.854Z,2.30
2023-03-06T02:31:25.730Z,2.30
2023-03-06T02:34:04.871Z,2.30
2023-03-06T02:36:31.908Z,2.30
2023-03-06T02:38:58.841Z,2.30
2023-03-06T02:41:26.597Z,2.30
2023-03-06T02:43:53.819Z,2.30
2023-03-06T02:46:21.364Z,2.30
2023-03-06T02:48:48.558Z,2.30
2023-03-06T02:51:15.530Z,2.30
2023-03-06T02:53:43.764Z,2.30
2023-03-06T02:56:10.648Z,2.40
2023-03-06T02:58:37.752Z,2.40
2023-03-06T03:01:05.027Z,2.40
2023-03-06T03:03:33.514Z,2.40
2023-03-06T03:06:00.788Z,2.40
2023-03-06T03:08:31.827Z,2.40
2023-03-06T03:11:01.122Z,2.40
2023-03-06T03:13:33.783Z,2.40
2023-03-06T03:16:02.541Z,2.40
2023-03-06T03:18:29.623Z,2.40
2023-03-06T03:20:56.738Z,2.40
2023-03-06T03:23:23.747Z,2.40
2023-03-06T03:25:50.664Z,2.40
2023-03-06T03:28:18.018Z,2.50
2023-03-06T03:30:45.885Z,2.50
2023-03-06T03:33:13.476Z,2.50
2023-03-06T03:35:40.632Z,2.50
2023-03-06T03:38:07.545Z,2.50
2023-03-06T03:40:34.889Z,2.50
2023-03-06T03:43:02.233Z,2.50
2023-03-06T03:45:29.330Z,2.50
2023-03-06T03:47:56.361Z,2.50
2023-03-06T03:50:24.574Z,2.50
2023-03-06T03:52:51.694Z,2.50
2023-03-06T03:55:18.953Z,2.50
2023-03-06T03:57:45.970Z,2.50
2023-03-06T04:00:16.749Z,2.50
2023-03-06T04:02:53.878Z,2.50
2023-03-06T04:05:27.816Z,2.50
2023-03-06T04:07:54.767Z,2.50
2023-03-06T04:10:21.937Z,2.50
2023-03-06T04:12:49.681Z,2.50
2023-03-06T04:15:17.203Z,2.50
2023-03-06T04:17:46.429Z,2.50
2023-03-06T04:20:16.894Z,2.50
2023-03-06T04:22:44.645Z,2.50
2023-03-06T04:25:12.382Z,2.50
2023-03-06T04:27:39.358Z,2.50
2023-03-06T04:30:06.786Z,2.60
2023-03-06T04:32:35.614Z,2.60
2023-03-06T04:35:02.957Z,2.60
2023-03-06T04:37:35.238Z,2.60
2023-03-06T04:40:02.289Z,2.60
2023-03-06T04:42:29.388Z,2.60
2023-03-06T04:44:56.665Z,2.50
2023-03-06T04:47:23.593Z,2.60
2023-03-06T04:49:50.492Z,2.50
2023-03-06T04:52:17.390Z,2.50
2023-03-06T04:54:46.089Z,2.50
2023-03-06T04:57:14.291Z,2.50
2023-03-06T04:59:41.273Z,2.50
2023-03-06T05:02:08.629Z,2.50
2023-03-06T05:04:35.597Z,2.40
2023-03-06T05:07:02.464Z,2.40
2023-03-06T05:09:29.611Z,2.40
2023-03-06T05:11:56.534Z,2.40
2023-03-06T05:14:23.810Z,2.40
2023-03-06T05:16:51.094Z,2.40
2023-03-06T05:19:18.114Z,2.40
2023-03-06T05:21:45.028Z,2.40
2023-03-06T05:24:12.010Z,2.40
2023-03-06T05:26:38.924Z,2.40
2023-03-06T05:29:05.869Z,2.40
2023-03-06T05:31:33.062Z,2.40
2023-03-06T05:34:00.768Z,2.40
2023-03-06T05:36:27.714Z,2.40
2023-03-06T05:38:54.839Z,2.40
2023-03-06T05:41:21.884Z,2.40
2023-03-06T05:43:48.776Z,2.40
2023-03-06T05:46:15.763Z,2.40
2023-03-06T05:48:42.767Z,2.40
2023-03-06T05:51:09.715Z,2.40
2023-03-06T05:53:36.773Z,2.40
2023-03-06T05:56:04.566Z,2.40
2023-03-06T05:58:32.199Z,2.40
2023-03-06T06:00:59.216Z,2.50
2023-03-06T06:03:26.163Z,2.50
2023-03-06T06:05:53.099Z,2.50
2023-03-06T06:08:20.284Z,2.50
2023-03-06T06:10:47.347Z,2.50
2023-03-06T06:13:14.298Z,2.50
2023-03-06T06:15:41.328Z,2.50
2023-03-06T06:18:08.158Z,2.50
2023-03-06T06:20:36.690Z,2.50
2023-03-06T06:23:03.589Z,2.60
2023-03-06T06:25:30.651Z,2.60
2023-03-06T06:27:57.918Z,2.60
2023-03-06T06:30:25.036Z,2.60
2023-03-06T06:32:51.946Z,2.60
2023-03-06T06:35:18.928Z,2.70
2023-03-06T06:37:45.840Z,2.70
2023-03-06T06:40:12.940Z,2.70
2023-03-06T06:42:40.472Z,2.80
2023-03-06T06:45:08.686Z,2.80
2023-03-06T06:47:38.396Z,2.80
2023-03-06T06:50:05.825Z,2.90
2023-03-06T06:52:32.838Z,2.90
2023-03-06T06:54:59.711Z,3.00
2023-03-06T06:57:26.597Z,3.00
2023-03-06T06:59:54.259Z,3.10
2023-03-06T07:02:21.287Z,3.10
2023-03-06T07:05:02.350Z,3.10
2023-03-06T07:07:30.887Z,3.20
2023-03-06T07:09:58.018Z,3.20
2023-03-06T07:12:24.954Z,3.30
2023-03-06T07:14:51.917Z,3.30
2023-03-06T07:17:18.877Z,3.40
2023-03-06T07:19:46.042Z,3.40
2023-03-06T07:22:13.346Z,3.40
2023-03-06T07:24:40.209Z,3.50
2023-03-06T07:27:07.504Z,3.50
2023-03-06T07:29:34.675Z,3.50
2023-03-06T07:32:02.299Z,3.60
2023-03-06T07:34:29.536Z,3.60
2023-03-06T07:36:56.432Z,3.60
2023-03-06T07:39:23.332Z,3.70
2023-03-06T07:41:50.304Z,3.90
2023-03-06T07:44:17.270Z,4.10
2023-03-06T07:46:44.200Z,4.20
2023-03-06T07:49:11.410Z,4.30
2023-03-06T07:51:38.322Z,4.30
2023-03-06T07:54:05.227Z,4.30
2023-03-06T07:56:35.005Z,4.40
2023-03-06T07:59:02.060Z,4.30
2023-03-06T08:01:29.494Z,4.40
2023-03-06T08:03:56.464Z,4.50
2023-03-06T08:06:24.213Z,4.50
2023-03-06T08:08:51.653Z,4.50
2023-03-06T08:11:19.034Z,4.50
2023-03-06T08:13:46.063Z,4.60
2023-03-06T08:16:13.129Z,4.60
2023-03-06T08:18:40.182Z,4.60
2023-03-06T08:21:08.129Z,4.50
2023-03-06T08:23:35.072Z,4.50
2023-03-06T08:26:03.232Z,4.50
2023-03-06T08:28:30.476Z,4.50
2023-03-06T08:30:57.444Z,4.50
2023-03-06T08:33:25.397Z,4.50
2023-03-06T08:35:52.582Z,4.60
2023-03-06T08:38:19.591Z,4.60
2023-03-06T08:40:46.848Z,4.70
2023-03-06T08:43:14.382Z,4.80
2023-03-06T08:45:41.421Z,4.90
2023-03-06T08:48:08.364Z,5.10
2023-03-06T08:50:35.347Z,5.20
2023-03-06T08:53:02.219Z,5.30
2023-03-06T08:55:29.336Z,5.40
2023-03-06T08:57:56.816Z,5.40
2023-03-06T09:00:23.933Z,5.50
2023-03-06T09:02:50.923Z,5.60
2023-03-06T09:05:17.976Z,5.70
2023-03-06T09:07:44.885Z,5.80
2023-03-06T09:10:13.495Z,5.70
2023-03-06T09:12:49.868Z,5.70
2023-03-06T09:15:18.167Z,5.70
2023-03-06T09:17:45.138Z,5.90
2023-03-06T09:20:12.339Z,6.00
2023-03-06T09:22:39.368Z,6.10
2023-03-06T09:25:06.829Z,6.20
2023-03-06T09:27:33.763Z,6.30
2023-03-06T09:30:00.735Z,6.30
2023-03-06T09:32:27.749Z,6.30
2023-03-06T09:34:54.661Z,6.30
2023-03-06T09:37:22.194Z,6.30
2023-03-06T09:39:49.037Z,6.30
2023-03-06T09:42:17.222Z,6.30
2023-03-06T09:44:44.551Z,6.40
2023-03-06T09:47:11.477Z,6.50
2023-03-06T09:49:47.661Z,6.80
2023-03-06T09:52:21.768Z,7.10
2023-03-06T09:55:02.974Z,7.30
2023-03-06T09:57:35.515Z,7.30
2023-03-06T10:00:07.371Z,7.30
2023-03-06T10:02:37.822Z,7.20
2023-03-06T10:05:06.891Z,7.20
2023-03-06T10:07:39.706Z,7.30
2023-03-06T10:10:07.039Z,7.30
2023-03-06T10:12:38.297Z,7.40
2023-03-06T10:15:14.236Z,7.40
2023-03-06T10:17:41.222Z,7.30
2023-03-06T10:20:27.092Z,7.10
2023-03-06T10:23:00.619Z,7.00
2023-03-06T10:25:37.267Z,6.90
2023-03-06T10:28:17.092Z,6.90
2023-03-06T10:31:07.687Z,6.90
2023-03-06T10:33:49.719Z,6.90
2023-03-06T10:36:17.513Z,7.10
2023-03-06T10:38:45.732Z,7.40
2023-03-06T10:41:12.718Z,7.70
2023-03-06T10:43:43.951Z,8.00
2023-03-06T10:46:11.873Z,8.20
2023-03-06T10:48:41.719Z,8.10
2023-03-06T10:51:18.051Z,8.20
2023-03-06T10:53:58.337Z,8.30
2023-03-06T10:56:35.327Z,8.20
2023-03-06T10:59:06.072Z,8.30
2023-03-06T11:01:33.151Z,8.30
2023-03-06T11:04:23.947Z,8.30
2023-03-06T11:07:07.536Z,8.10
2023-03-06T11:09:34.848Z,7.90
2023-03-06T11:12:16.821Z,7.80
2023-03-06T11:14:43.739Z,7.60
2023-03-06T11:17:26.301Z,7.50
2023-03-06T11:20:06.967Z,7.50
2023-03-06T11:22:34.124Z,7.50
2023-03-06T11:25:01.089Z,7.40
2023-03-06T11:27:34.608Z,7.20
2023-03-06T11:30:10.564Z,7.10
2023-03-06T11:32:45.229Z,7.10
2023-03-06T11:35:12.766Z,7.20
2023-03-06T11:37:42.770Z,7.10
2023-03-06T11:40:18.226Z,7.00
2023-03-06T11:43:03.600Z,6.80
2023-03-06T11:45:37.274Z,7.10
2023-03-06T11:48:04.400Z,7.20
2023-03-06T11:50:33.652Z,7.40
2023-03-06T11:53:01.697Z,7.60
2023-03-06T11:55:28.582Z,7.80
2023-03-06T11:57:55.399Z,7.80
2023-03-06T12:00:23.086Z,7.80
2023-03-06T12:03:10.216Z,7.90
2023-03-06T12:05:49.230Z,8.00
2023-03-06T12:08:31.463Z,8.30
2023-03-06T12:11:02.403Z,8.40
2023-03-06T12:13:29.236Z,8.50
2023-03-06T12:16:01.884Z,8.50
2023-03-06T12:18:43.843Z,8.50
2023-03-06T12:21:20.652Z,8.40
2023-03-06T12:24:08.606Z,8.10
2023-03-06T12:26:49.257Z,8.00
2023-03-06T12:29:16.106Z,7.80
2023-03-06T12:31:57.388Z,7.80
2023-03-06T12:34:34.167Z,7.80
2023-03-06T12:37:19.456Z,7.90
2023-03-06T12:40:06.980Z,7.90
2023-03-06T12:42:37.377Z,7.80
2023-03-06T12:45:10.601Z,7.60
2023-03-06T12:47:44.654Z,7.50
2023-03-06T12:50:18.363Z,7.30
2023-03-06T12:52:45.282Z,7.20
2023-03-06T12:55:13.026Z,7.10
2023-03-06T12:57:41.815Z,7.00
2023-03-06T13:00:11.757Z,6.90
2023-03-06T13:02:38.787Z,6.90
2023-03-06T13:05:22.424Z,7.00
2023-03-06T13:07:52.869Z,7.00
2023-03-06T13:10:25.540Z,7.00
2023-03-06T13:13:01.968Z,6.80
2023-03-06T13:15:34.996Z,6.60
2023-03-06T13:18:02.533Z,6.30
2023-03-06T13:20:29.485Z,6.00
2023-03-06T13:22:56.544Z,5.80
2023-03-06T13:25:23.518Z,5.60
2023-03-06T13:27:53.511Z,5.30
2023-03-06T13:30:38.522Z,5.10
2023-03-06T13:33:25.918Z,4.90
2023-03-06T13:35:56.676Z,4.90
2023-03-06T13:38:33.592Z,4.90
2023-03-06T13:41:39.433Z,5.00
2023-03-06T13:44:26.582Z,5.30
2023-03-06T13:47:00.168Z,5.50
2023-03-06T13:49:27.010Z,5.70
2023-03-06T13:51:53.966Z,5.70
2023-03-06T13:54:26.819Z,5.80
2023-03-06T13:56:59.714Z,5.90
2023-03-06T13:59:26.619Z,5.90
2023-03-06T14:02:11.947Z,5.90
2023-03-06T14:04:53.549Z,5.90
2023-03-06T14:07:30.332Z,5.90
2023-03-06T14:09:57.253Z,5.90
2023-03-06T14:12:24.942Z,5.90
2023-03-06T14:14:53.364Z,5.80
2023-03-06T14:17:30.295Z,5.70
2023-03-06T14:19:58.517Z,5.30
2023-03-06T14:22:25.526Z,4.90
2023-03-06T14:24:57.331Z,4.60
2023-03-06T14:28:12.371Z,4.30
2023-03-06T14:30:48.203Z,4.00
2023-03-06T14:33:18.453Z,3.80
2023-03-06T14:35:45.489Z,3.50
2023-03-06T14:38:12.715Z,3.40
2023-03-06T14:40:43.302Z,3.40
2023-03-06T14:43:15.467Z,3.30
2023-03-06T14:45:49.235Z,3.40
2023-03-06T14:48:16.478Z,3.30
2023-03-06T14:50:47.315Z,3.30
2023-03-06T14:53:15.629Z,3.30
2023-03-06T14:55:48.066Z,3.40
2023-03-06T14:58:16.379Z,3.40
2023-03-06T15:00:44.042Z,3.40
2023-03-06T15:03:15.508Z,3.50
2023-03-06T15:05:43.317Z,3.60
2023-03-06T15:08:10.224Z,3.60
2023-03-06T15:10:37.329Z,3.60
2023-03-06T15:13:23.162Z,3.70
2023-03-06T15:15:57.195Z,3.60
2023-03-06T15:18:31.028Z,3.50
2023-03-06T15:21:08.066Z,3.50
2023-03-06T15:23:37.821Z,3.40
2023-03-06T15:26:17.975Z,3.40
2023-03-06T15:28:45.114Z,3.40
2023-03-06T15:31:22.118Z,3.50
2023-03-06T15:34:02.140Z,3.40
2023-03-06T15:36:29.978Z,3.40
2023-03-06T15:38:58.495Z,3.40
2023-03-06T15:41:35.710Z,3.40
2023-03-06T15:44:03.676Z,3.40
2023-03-06T15:46:30.632Z,3.40
2023-03-06T15:49:00.666Z,3.40
2023-03-06T15:51:29.134Z,3.30
2023-03-06T15:54:09.924Z,3.20
2023-03-06T15:56:39.180Z,3.20
2023-03-06T15:59:08.886Z,3.20
2023-03-06T16:01:37.371Z,3.20
2023-03-06T16:04:04.583Z,3.20
2023-03-06T16:06:31.684Z,3.20
2023-03-06T16:08:58.619Z,3.20
2023-03-06T16:11:32.504Z,3.10
2023-03-06T16:14:02.540Z,3.10
2023-03-06T16:16:36.209Z,3.10
2023-03-06T16:19:04.145Z,3.10
2023-03-06T16:21:31.892Z,3.00
2023-03-06T16:23:58.735Z,3.00
2023-03-06T16:26:34.882Z,3.00
2023-03-06T16:29:01.916Z,2.90
2023-03-06T16:31:28.795Z,2.90
2023-03-06T16:33:55.674Z,2.90
2023-03-06T16:36:23.378Z,2.90
2023-03-06T16:38:50.303Z,2.90
2023-03-06T16:41:17.778Z,2.90
2023-03-06T16:43:45.546Z,2.80
2023-03-06T16:46:15.754Z,2.80
2023-03-06T16:48:42.737Z,2.80
2023-03-06T16:51:10.025Z,2.80
2023-03-06T16:53:36.916Z,2.80
2023-03-06T16:56:03.960Z,2.80
2023-03-06T16:58:30.902Z,2.80
2023-03-06T17:00:58.238Z,2.70
2023-03-06T17:03:25.837Z,2.60
2023-03-06T17:05:52.804Z,2.60
2023-03-06T17:08:19.637Z,2.60
2023-03-06T17:10:47.245Z,2.60
2023-03-06T17:13:14.834Z,2.60
2023-03-06T17:15:41.717Z,2.60
2023-03-06T17:18:08.952Z,2.50
2023-03-06T17:20:35.876Z,2.50
2023-03-06T17:23:02.820Z,2.50
2023-03-06T17:25:29.668Z,2.50
2023-03-06T17:27:56.640Z,2.50
2023-03-06T17:30:23.579Z,2.50
2023-03-06T17:32:50.506Z,2.50
2023-03-06T17:35:17.407Z,2.50
2023-03-06T17:37:44.405Z,2.50
2023-03-06T17:40:11.750Z,2.50
2023-03-06T17:42:38.852Z,2.50
2023-03-06T17:45:06.477Z,2.50
2023-03-06T17:47:33.731Z,2.60
2023-03-06T17:50:00.666Z,2.60
2023-03-06T17:52:27.538Z,2.60
2023-03-06T17:54:54.469Z,2.50
2023-03-06T17:57:21.426Z,2.50
2023-03-06T17:59:49.070Z,2.50
2023-03-06T18:02:16.115Z,2.50
2023-03-06T18:04:43.427Z,2.50
2023-03-06T18:07:10.435Z,2.40
2023-03-06T18:09:37.368Z,2.50
2023-03-06T18:12:04.458Z,2.50
2023-03-06T18:14:31.343Z,2.50
2023-03-06T18:16:58.280Z,2.50
2023-03-06T18:19:25.192Z,2.50
2023-03-06T18:21:52.198Z,2.50
2023-03-06T18:24:19.139Z,2.40
2023-03-06T18:26:46.162Z,2.40
2023-03-06T18:29:13.176Z,2.40
2023-03-06T18:31:40.549Z,2.40
2023-03-06T18:34:08.458Z,2.40
2023-03-06T18:36:35.565Z,2.40
2023-03-06T18:39:03.978Z,2.40
2023-03-06T18:41:31.101Z,2.40
2023-03-06T18:43:59.048Z,2.40
2023-03-06T18:46:26.138Z,2.40
2023-03-06T18:48:53.069Z,2.40
2023-03-06T18:51:20.198Z,2.40
2023-03-06T18:53:47.491Z,2.40
2023-03-06T18:56:16.371Z,2.40
2023-03-06T18:58:43.734Z,2.40
2023-03-06T19:01:10.730Z,2.40
2023-03-06T19:03:37.627Z,2.40
2023-03-06T19:06:05.401Z,2.40
2023-03-06T19:08:32.526Z,2.30
2023-03-06T19:11:03.804Z,2.30
2023-03-06T19:13:30.854Z,2.30
2023-03-06T19:15:57.802Z,2.30
2023-03-06T19:18:25.191Z,2.20
2023-03-06T19:20:53.236Z,2.20
2023-03-06T19:23:21.283Z,2.20
2023-03-06T19:25:57.793Z,2.20
2023-03-06T19:28:24.809Z,2.20
2023-03-06T19:30:51.677Z,2.20
2023-03-06T19:33:18.629Z,2.20
2023-03-06T19:35:45.693Z,2.20
2023-03-06T19:38:15.274Z,2.20
2023-03-06T19:40:48.263Z,2.30
2023-03-06T19:43:15.192Z,2.30
2023-03-06T19:45:43.294Z,2.30
2023-03-06T19:48:12.400Z,2.30
2023-03-06T19:50:40.004Z,2.30
2023-03-06T19:53:07.913Z,2.30
2023-03-06T19:55:34.927Z,2.30
2023-03-06T19:58:01.995Z,2.40
2023-03-06T20:00:29.047Z,2.40
2023-03-06T20:02:56.307Z,2.40
2023-03-06T20:05:23.330Z,2.40
2023-03-06T20:07:50.976Z,2.40
2023-03-06T20:10:18.309Z,2.40
2023-03-06T20:12:45.335Z,2.40
2023-03-06T20:15:13.150Z,2.40
2023-03-06T20:17:43.099Z,2.40
2023-03-06T20:20:10.960Z,2.40
2023-03-06T20:22:37.914Z,2.40
2023-03-06T20:25:05.213Z,2.50
2023-03-06T20:27:32.192Z,2.50
2023-03-06T20:29:59.643Z,2.50
2023-03-06T20:32:26.736Z,2.50
2023-03-06T20:34:53.916Z,2.50
2023-03-06T20:37:20.878Z,2.50
2023-03-06T20:39:48.262Z,2.50
2023-03-06T20:42:15.479Z,2.60
2023-03-06T20:44:42.449Z,2.60
2023-03-06T20:47:09.813Z,2.60
2023-03-06T20:49:36.861Z,2.60
2023-03-06T20:52:03.913Z,2.60
2023-03-06T20:54:30.952Z,2.60
2023-03-06T20:56:58.100Z,2.60
2023-03-06T20:59:25.174Z,2.60
2023-03-06T21:01:52.547Z,2.60
2023-03-06T21:04:19.449Z,2.60
2023-03-06T21:06:47.028Z,2.60
2023-03-06T21:09:15.852Z,2.60
2023-03-06T21:11:42.889Z,2.50
2023-03-06T21:14:10.939Z,2.60
2023-03-06T21:16:37.849Z,2.50
2023-03-06T21:19:05.609Z,2.50
2023-03-06T21:21:33.684Z,2.50
2023-03-06T21:24:00.951Z,2.50
2023-03-06T21:26:28.635Z,2.50
2023-03-06T21:28:59.061Z,2.40
2023-03-06T21:31:26.422Z,2.40
2023-03-06T21:33:53.381Z,2.40
2023-03-06T21:36:21.829Z,2.40
2023-03-06T21:38:48.994Z,2.40
2023-03-06T21:41:25.190Z,2.40
2023-03-06T21:43:55.856Z,2.50
2023-03-06T21:46:22.957Z,2.50
2023-03-06T21:48:49.960Z,2.50
2023-03-06T21:51:19.031Z,2.50
2023-03-06T21:53:46.248Z,2.40
2023-03-06T21:56:13.495Z,2.30
2023-03-06T21:58:40.625Z,2.30
2023-03-06T22:01:14.438Z,2.30
2023-03-06T22:03:41.363Z,2.30
2023-03-06T22:06:17.848Z,2.30
2023-03-06T22:08:44.912Z,2.30
2023-03-06T22:11:12.673Z,2.30
2023-03-06T22:13:39.706Z,2.30
2023-03-06T22:16:06.764Z,2.30
2023-03-06T22:18:33.741Z,2.40
2023-03-06T22:21:00.544Z,2.40
2023-03-06T22:23:27.636Z,2.40
2023-03-06T22:25:54.475Z,2.40
2023-03-06T22:28:21.334Z,2.40
2023-03-06T22:30:48.341Z,2.40
2023-03-06T22:33:15.292Z,2.50
2023-03-06T22:35:42.304Z,2.50
2023-03-06T22:38:09.386Z,2.50
2023-03-06T22:40:36.293Z,2.50
2023-03-06T22:43:03.299Z,2.50
2023-03-06T22:45:30.183Z,2.40
2023-03-06T22:48:05.620Z,2.40
2023-03-06T22:50:37.184Z,2.40
2023-03-06T22:53:04.047Z,2.40
2023-03-06T22:55:30.961Z,2.40
2023-03-06T22:57:57.818Z,2.50
2023-03-06T23:00:25.671Z,2.50
2023-03-06T23:02:52.847Z,2.50
2023-03-06T23:05:19.776Z,2.50
2023-03-06T23:07:46.932Z,2.50
2023-03-06T23:10:13.792Z,2.50
2023-03-06T23:12:59.829Z,2.50
2023-03-06T23:15:45.387Z,2.50
2023-03-06T23:18:31.486Z,2.50
2023-03-06T23:21:18.115Z,2.60
2023-03-06T23:24:03.549Z,2.50
2023-03-06T23:26:30.841Z,2.50
2023-03-06T23:28:57.934Z,2.50
2023-03-06T23:31:28.498Z,2.50
2023-03-06T23:33:59.298Z,2.50
2023-03-06T23:36:26.554Z,2.60
2023-03-06T23:38:53.781Z,2.60
2023-03-06T23:41:21.063Z,2.60
2023-03-06T23:43:48.035Z,2.70
2023-03-06T23:46:15.105Z,2.70
2023-03-06T23:48:42.311Z,2.70
2023-03-06T23:51:10.470Z,2.70
2023-03-06T23:53:37.369Z,2.70
2023-03-06T23:56:07.807Z,2.80
2023-03-06T23:58:34.828Z,2.70
